Portada
METAR-TAF:

METAR-TAF

Aeroports :

Txeliàbinsk, Rússia

latitud: 55-10N, longitud: 061-24E, altitud: 234 m

Observació

L'informe es va fer fa 35 minuts, a les 03:00 UTC
Vent 10 kt del Sud/Sud-Oest
Temperatura 5°C
Humitat 65%
Pressió 1017 hPa
Visibilitat: 5000 m
fum

METAR: USCC 300300Z 21005MPS 5000 FU NSC 05/M01 Q1017 R27/000060 NOSIG RMK QFE743

Hora: 08:35 (03:35 UTC)

Pronòstic

L'informe es va fer fa 1 hora i 35 minuts, a les 02:00 UTC
Pronòstic vàlid del 30 a les 03 UTC al 31 a les 03 UTC
Vent 10 kt del Sud-Oest amb ràfegues de 19 kt
Visibilitat 10 km o més
Núvols disperses a una alçada de 4000 ft
Temporalment
l' 30 a les 03 UTC al 30 a les 12 UTC
Vent 10 kt del Sud/Sud-Oest amb ràfegues de 25 kt

TAF: USCC 300200Z 3003/3103 23005G10MPS 9999 SCT040 TEMPO 3003/3012 21005G13MPS

Observacions i pronòstics meteorològics de més de 4000 aeroports (METAR i TAF).

Les estacions disponibles són els punts grocs i vermells al mapa.

Posi el ratolí al punt desitjat per veure el nom de l'estació.

Feu clic per veure les observacions i els pronòstics meteorològics.

Per canviar el mapa: feu clic els botons verds amb una creu de color negre per apropar; al botó verd amb un guió per allunyar la imatge; o en les fletxes verdes per a mapes adjacents.


METAR-TAF: